Time;durP1;ratioP1;P1;durP2;ratioP2;P2;SDS_P1;SDS_P2;PMS_P1;PMS_P2;Temp;Humidity;BMP_temperature;BMP_pressure;BME280_temperature;BME280_humidity;BME280_pressure;Samples;Min_cycle;Max_cycle;Signal;HPM_P1;HPM_P2
2023/08/29 00:02:08;;;;;;;5.78;3.63;;;;;;;;;;5032175;28;20025;-74
2023/08/29 00:04:34;;;;;;;6.40;3.78;;;;;;;;;;5034439;28;20502;-74
2023/08/29 00:07:00;;;;;;;4.43;3.35;;;;;;;;;;5034935;28;20021;-74
2023/08/29 00:09:26;;;;;;;7.15;4.18;;;;;;;;;;5032538;28;20387;-73
2023/08/29 00:11:52;;;;;;;8.27;3.88;;;;;;;;;;5032117;28;20036;-74
2023/08/29 00:14:18;;;;;;;8.80;4.10;;;;;;;;;;5032250;28;20390;-75
2023/08/29 00:16:44;;;;;;;6.38;3.90;;;;;;;;;;5031927;28;20036;-73
2023/08/29 00:19:10;;;;;;;8.63;3.97;;;;;;;;;;5031968;28;20032;-74
2023/08/29 00:21:36;;;;;;;5.55;4.00;;;;;;;;;;5032501;28;20021;-75
2023/08/29 00:24:03;;;;;;;5.63;3.85;;;;;;;;;;5030793;28;20090;-75
2023/08/29 00:26:29;;;;;;;6.63;3.60;;;;;;;;;;5031306;28;20025;-75
2023/08/29 00:28:55;;;;;;;6.53;3.90;;;;;;;;;;5031883;28;20029;-74
2023/08/29 00:31:21;;;;;;;7.53;3.90;;;;;;;;;;5032059;28;20029;-75
2023/08/29 00:33:47;;;;;;;4.10;3.55;;;;;;;;;;5031996;28;20021;-74
2023/08/29 00:36:13;;;;;;;6.60;3.45;;;;;;;;;;5032650;28;20026;-73
2023/08/29 00:38:39;;;;;;;6.20;3.70;;;;;;;;;;5031441;28;20033;-75
2023/08/29 00:41:05;;;;;;;7.00;4.10;;;;;;;;;;5031482;28;20491;-73
2023/08/29 00:43:31;;;;;;;6.13;4.22;;;;;;;;;;5031030;28;20033;-74
2023/08/29 00:45:57;;;;;;;5.97;3.70;;;;;;;;;;5032087;28;20083;-73
2023/08/29 00:48:24;;;;;;;5.05;3.70;;;;;;;;;;5031321;28;20472;-74
2023/08/29 00:50:50;;;;;;;7.15;3.63;;;;;;;;;;5031179;28;20021;-74
2023/08/29 00:53:17;;;;;;;8.48;4.20;;;;;;;;;;5030806;28;20032;-74
2023/08/29 00:55:43;;;;;;;8.05;4.05;;;;;;;;;;5031075;28;20045;-74
2023/08/29 00:58:09;;;;;;;6.80;4.05;;;;;;;;;;5034792;28;20029;-75
2023/08/29 01:00:36;;;;;;;9.35;4.32;;;;;;;;;;5031229;28;20475;-73
2023/08/29 01:03:02;;;;;;;16.00;7.55;;;;;;;;;;5029775;28;20034;-74
2023/08/29 01:05:28;;;;;;;9.43;5.15;;;;;;;;;;5031089;28;20030;-75
2023/08/29 01:07:58;;;;;;;6.63;3.80;;;;;;;;;;5033842;28;20041;-74
2023/08/29 01:10:33;;;;;;;5.75;3.58;;;;;;;;;;5038645;28;20022;-75
2023/08/29 01:15:42;;;;;;;6.38;3.50;;;;;;;;;;5132497;27;20395;-73
2023/08/29 01:18:12;;;;;;;5.65;3.72;;;;;;;;;;5134109;28;20054;-73
2023/08/29 01:20:38;;;;;;;5.97;3.72;;;;;;;;;;5140007;28;20024;-74
2023/08/29 01:23:04;;;;;;;4.65;3.00;;;;;;;;;;5144327;28;20035;-73
2023/08/29 01:25:49;;;;;;;8.63;4.28;;;;;;;;;;5114398;28;20106;-74
2023/08/29 01:28:15;;;;;;;6.80;3.70;;;;;;;;;;5131605;28;20024;-74
2023/08/29 01:30:48;;;;;;;4.43;3.30;;;;;;;;;;5121508;28;20024;-75
2023/08/29 01:33:14;;;;;;;5.57;3.75;;;;;;;;;;5121368;28;20026;-74
2023/08/29 01:35:46;;;;;;;6.72;3.72;;;;;;;;;;5140385;28;20015;-73
2023/08/29 01:38:13;;;;;;;6.00;3.60;;;;;;;;;;5117277;28;20023;-74
2023/08/29 01:40:39;;;;;;;5.68;3.25;;;;;;;;;;5131036;28;20423;-73
2023/08/29 01:43:05;;;;;;;6.38;3.60;;;;;;;;;;5111318;28;20538;-73
2023/08/29 01:45:31;;;;;;;7.13;3.95;;;;;;;;;;5129540;28;20032;-73
2023/08/29 01:47:57;;;;;;;6.07;3.53;;;;;;;;;;5130167;28;20424;-73
2023/08/29 01:50:23;;;;;;;7.82;3.97;;;;;;;;;;5130182;28;20110;-73
2023/08/29 01:52:49;;;;;;;7.18;3.95;;;;;;;;;;5129678;28;20027;-73
2023/08/29 01:55:16;;;;;;;6.10;3.72;;;;;;;;;;5129402;28;20031;-73
2023/08/29 01:57:43;;;;;;;5.07;3.50;;;;;;;;;;5129418;28;20144;-73
2023/08/29 02:00:10;;;;;;;7.93;3.80;;;;;;;;;;5129690;28;20028;-74
2023/08/29 02:02:36;;;;;;;6.38;4.00;;;;;;;;;;5129135;28;20023;-73
2023/08/29 02:05:02;;;;;;;5.28;3.70;;;;;;;;;;5129284;28;20023;-73
2023/08/29 02:07:28;;;;;;;6.97;3.47;;;;;;;;;;5129287;28;20030;-73
2023/08/29 02:09:54;;;;;;;8.18;4.20;;;;;;;;;;5129228;28;20032;-74
2023/08/29 02:12:20;;;;;;;8.70;4.20;;;;;;;;;;5129120;28;20460;-74
2023/08/29 02:14:48;;;;;;;9.52;4.47;;;;;;;;;;5128983;28;20027;-74
2023/08/29 02:17:14;;;;;;;7.30;4.88;;;;;;;;;;5130679;28;20023;-74
2023/08/29 02:19:40;;;;;;;8.35;3.90;;;;;;;;;;5129727;28;20088;-74
2023/08/29 02:22:06;;;;;;;6.93;3.92;;;;;;;;;;5128876;28;20445;-73
2023/08/29 02:24:32;;;;;;;5.93;4.00;;;;;;;;;;5145537;27;20053;-75
2023/08/29 02:26:58;;;;;;;6.50;4.05;;;;;;;;;;5115560;28;20030;-74
2023/08/29 02:29:24;;;;;;;6.82;5.00;;;;;;;;;;5115127;28;20076;-73
2023/08/29 02:31:50;;;;;;;6.97;4.05;;;;;;;;;;5101371;28;20028;-72
2023/08/29 02:34:16;;;;;;;4.97;3.70;;;;;;;;;;5095123;28;20484;-75
2023/08/29 02:36:42;;;;;;;8.05;3.70;;;;;;;;;;5114539;27;20047;-73
2023/08/29 02:39:08;;;;;;;6.38;3.85;;;;;;;;;;5107998;28;20477;-72
2023/08/29 02:41:34;;;;;;;5.88;3.83;;;;;;;;;;5106052;27;20035;-74
2023/08/29 02:44:00;;;;;;;6.55;3.42;;;;;;;;;;5096708;28;20057;-73
2023/08/29 02:46:26;;;;;;;4.38;3.30;;;;;;;;;;5114718;27;20481;-74
2023/08/29 02:48:52;;;;;;;7.45;3.20;;;;;;;;;;5099278;28;20027;-74
2023/08/29 02:51:18;;;;;;;4.53;3.40;;;;;;;;;;5116668;28;20024;-75
2023/08/29 02:53:44;;;;;;;4.18;2.90;;;;;;;;;;5104282;28;20554;-74
2023/08/29 02:56:10;;;;;;;6.20;3.20;;;;;;;;;;5095799;28;20046;-74
2023/08/29 02:58:36;;;;;;;3.92;2.95;;;;;;;;;;5113551;28;20069;-75
2023/08/29 03:01:03;;;;;;;5.30;3.05;;;;;;;;;;5111071;28;20488;-75
2023/08/29 03:03:29;;;;;;;5.32;3.03;;;;;;;;;;5101588;27;20015;-75
2023/08/29 03:05:56;;;;;;;5.57;2.90;;;;;;;;;;5113689;27;20122;-75
2023/08/29 03:08:22;;;;;;;4.55;3.10;;;;;;;;;;5096343;28;20023;-74
2023/08/29 03:10:49;;;;;;;7.55;3.63;;;;;;;;;;5097182;27;20017;-76
2023/08/29 03:13:15;;;;;;;4.90;2.97;;;;;;;;;;5123489;27;20050;-75
2023/08/29 03:15:41;;;;;;;7.22;3.08;;;;;;;;;;5115032;28;20032;-74
2023/08/29 03:18:07;;;;;;;4.30;3.20;;;;;;;;;;5112132;27;20051;-74
2023/08/29 03:20:33;;;;;;;5.75;3.92;;;;;;;;;;5076983;28;20027;-74
2023/08/29 03:22:59;;;;;;;9.65;4.03;;;;;;;;;;5111095;27;20497;-74
2023/08/29 03:25:25;;;;;;;6.38;4.45;;;;;;;;;;5107326;27;20055;-73
2023/08/29 03:27:51;;;;;;;6.55;4.05;;;;;;;;;;5114771;28;20027;-76
2023/08/29 03:30:17;;;;;;;10.85;3.58;;;;;;;;;;5114060;27;20055;-73
2023/08/29 03:32:43;;;;;;;5.05;3.17;;;;;;;;;;5113535;28;20406;-73
2023/08/29 03:35:09;;;;;;;5.35;3.60;;;;;;;;;;5114998;28;20024;-74
2023/08/29 03:37:35;;;;;;;6.18;3.80;;;;;;;;;;5114442;28;20102;-74
2023/08/29 03:40:02;;;;;;;6.57;3.88;;;;;;;;;;5098132;28;20067;-75
2023/08/29 03:42:28;;;;;;;5.72;4.22;;;;;;;;;;5112238;28;20227;-75
2023/08/29 03:44:54;;;;;;;9.27;3.85;;;;;;;;;;5114245;28;20028;-73
2023/08/29 03:47:20;;;;;;;5.47;3.70;;;;;;;;;;5113631;28;20031;-73
2023/08/29 03:49:46;;;;;;;8.35;3.97;;;;;;;;;;5113383;28;20024;-73
2023/08/29 03:52:20;;;;;;;9.38;4.32;;;;;;;;;;5113872;28;20024;-73
2023/08/29 03:54:46;;;;;;;3.72;3.13;;;;;;;;;;5113136;28;20088;-73
2023/08/29 03:57:12;;;;;;;4.45;3.22;;;;;;;;;;5113081;28;20466;-74
2023/08/29 03:59:38;;;;;;;7.38;3.70;;;;;;;;;;5113146;28;20106;-73
2023/08/29 04:02:06;;;;;;;6.68;4.35;;;;;;;;;;5113316;28;20019;-75
2023/08/29 04:04:34;;;;;;;8.38;5.13;;;;;;;;;;5117242;28;20027;-74
2023/08/29 04:07:00;;;;;;;6.18;3.80;;;;;;;;;;5078758;28;20027;-73
2023/08/29 04:09:26;;;;;;;9.13;5.00;;;;;;;;;;5113077;28;20055;-73
2023/08/29 04:11:52;;;;;;;10.70;3.75;;;;;;;;;;5112768;28;20535;-74
2023/08/29 04:14:18;;;;;;;11.02;3.88;;;;;;;;;;5113288;28;20031;-75
2023/08/29 04:16:44;;;;;;;9.20;3.88;;;;;;;;;;5097927;28;20504;-75
2023/08/29 04:19:11;;;;;;;6.60;3.13;;;;;;;;;;5112944;28;20512;-73
2023/08/29 04:21:37;;;;;;;5.00;3.40;;;;;;;;;;5112763;28;20098;-75
2023/08/29 04:24:03;;;;;;;6.35;3.40;;;;;;;;;;5112526;28;20095;-74
2023/08/29 04:26:29;;;;;;;10.07;3.75;;;;;;;;;;5113223;28;20452;-74
2023/08/29 04:28:55;;;;;;;4.75;3.35;;;;;;;;;;5097546;28;20080;-74
2023/08/29 04:31:22;;;;;;;8.18;5.20;;;;;;;;;;5113561;28;20434;-74
2023/08/29 04:33:48;;;;;;;8.07;4.57;;;;;;;;;;5112108;28;20032;-73
2023/08/29 04:36:17;;;;;;;6.80;4.50;;;;;;;;;;5110499;28;20027;-75
2023/08/29 04:38:45;;;;;;;10.82;6.47;;;;;;;;;;5112533;28;20130;-77
2023/08/29 04:41:11;;;;;;;8.60;5.63;;;;;;;;;;5114278;28;20019;-77
2023/08/29 04:43:38;;;;;;;11.20;6.60;;;;;;;;;;5112241;28;20032;-76
2023/08/29 04:46:07;;;;;;;8.80;5.55;;;;;;;;;;5111304;28;20027;-76
2023/08/29 04:48:33;;;;;;;7.88;5.10;;;;;;;;;;5113122;28;20560;-77
2023/08/29 04:50:59;;;;;;;9.45;5.47;;;;;;;;;;5114541;28;20128;-76
2023/08/29 04:53:25;;;;;;;9.20;5.68;;;;;;;;;;5112934;28;20015;-74
2023/08/29 04:55:58;;;;;;;7.75;5.43;;;;;;;;;;5113662;28;20024;-74
2023/08/29 04:58:24;;;;;;;6.72;4.97;;;;;;;;;;5093301;28;20023;-74
2023/08/29 05:00:50;;;;;;;8.38;5.35;;;;;;;;;;5112402;28;20533;-74
2023/08/29 05:03:16;;;;;;;10.48;5.63;;;;;;;;;;5093974;28;20028;-72
2023/08/29 05:05:46;;;;;;;12.95;6.60;;;;;;;;;;5112400;28;20049;-75
2023/08/29 05:08:12;;;;;;;8.98;5.72;;;;;;;;;;5095184;28;20050;-74
2023/08/29 05:10:38;;;;;;;9.02;4.80;;;;;;;;;;5095871;28;20027;-75
2023/08/29 05:13:04;;;;;;;8.95;5.20;;;;;;;;;;5112478;28;20038;-73
2023/08/29 05:15:30;;;;;;;7.22;4.53;;;;;;;;;;5111989;28;20394;-75
2023/08/29 05:17:57;;;;;;;8.93;5.00;;;;;;;;;;5097533;28;20048;-76
2023/08/29 05:20:23;;;;;;;8.80;4.55;;;;;;;;;;5097855;28;20148;-76
2023/08/29 05:22:49;;;;;;;14.98;8.50;;;;;;;;;;5112170;28;20098;-75
2023/08/29 05:25:15;;;;;;;11.13;6.15;;;;;;;;;;5112039;28;20035;-75
2023/08/29 05:27:41;;;;;;;8.27;5.07;;;;;;;;;;5111702;28;20111;-76
2023/08/29 05:30:08;;;;;;;6.93;4.65;;;;;;;;;;5112751;28;20062;-77
2023/08/29 05:32:34;;;;;;;9.77;5.80;;;;;;;;;;5110524;28;20102;-76
2023/08/29 05:35:00;;;;;;;7.80;5.85;;;;;;;;;;5111582;28;20194;-77
2023/08/29 05:37:26;;;;;;;8.50;4.93;;;;;;;;;;5111629;28;20106;-75
2023/08/29 05:39:52;;;;;;;7.55;5.22;;;;;;;;;;5102800;28;20026;-75
2023/08/29 05:42:18;;;;;;;9.63;5.38;;;;;;;;;;5111129;28;20020;-77
2023/08/29 05:44:44;;;;;;;10.38;5.95;;;;;;;;;;5111070;28;20102;-76
2023/08/29 05:47:10;;;;;;;9.55;5.68;;;;;;;;;;5111573;28;20024;-76
2023/08/29 05:49:36;;;;;;;8.15;5.88;;;;;;;;;;5109249;28;20400;-74
2023/08/29 05:52:02;;;;;;;10.43;4.97;;;;;;;;;;5111764;28;20028;-75
2023/08/29 05:54:29;;;;;;;13.13;6.03;;;;;;;;;;5111026;28;20069;-75
2023/08/29 05:56:55;;;;;;;8.02;5.63;;;;;;;;;;5111375;28;20011;-76
2023/08/29 05:59:21;;;;;;;10.65;6.07;;;;;;;;;;5110411;28;20393;-76
2023/08/29 06:01:48;;;;;;;16.85;6.55;;;;;;;;;;5112933;28;20035;-73
2023/08/29 06:04:14;;;;;;;11.82;5.85;;;;;;;;;;5115101;28;20055;-74
2023/08/29 06:06:40;;;;;;;8.85;5.65;;;;;;;;;;5113501;28;20055;-76
2023/08/29 06:09:09;;;;;;;9.75;5.18;;;;;;;;;;5115854;28;20027;-74
2023/08/29 06:11:35;;;;;;;9.90;5.57;;;;;;;;;;5115188;28;20063;-73
2023/08/29 06:14:01;;;;;;;14.40;6.65;;;;;;;;;;5114594;28;20024;-73
2023/08/29 06:16:27;;;;;;;9.40;6.20;;;;;;;;;;5115183;28;20481;-73
2023/08/29 06:18:53;;;;;;;12.77;5.90;;;;;;;;;;5115233;28;20055;-73
2023/08/29 06:21:20;;;;;;;8.25;5.15;;;;;;;;;;5115006;28;20118;-73
2023/08/29 06:23:46;;;;;;;9.38;5.63;;;;;;;;;;5114601;28;20034;-73
2023/08/29 06:26:12;;;;;;;13.23;5.95;;;;;;;;;;5114872;28;20110;-73
2023/08/29 06:28:38;;;;;;;8.15;5.35;;;;;;;;;;5114787;28;20031;-73
2023/08/29 06:31:05;;;;;;;11.10;5.20;;;;;;;;;;5114381;28;20034;-74
2023/08/29 06:33:31;;;;;;;9.68;5.75;;;;;;;;;;5114622;27;20106;-72
2023/08/29 06:35:57;;;;;;;9.48;6.25;;;;;;;;;;5115034;27;20123;-73
2023/08/29 06:38:23;;;;;;;16.08;6.40;;;;;;;;;;5114881;27;20083;-73
2023/08/29 06:40:58;;;;;;;10.70;4.80;;;;;;;;;;5121805;27;20383;-72
2023/08/29 06:43:25;;;;;;;10.95;5.28;;;;;;;;;;5093457;27;20016;-72
2023/08/29 06:45:51;;;;;;;8.82;5.60;;;;;;;;;;5093983;28;20360;-73
2023/08/29 06:48:17;;;;;;;8.75;5.70;;;;;;;;;;5112326;28;20119;-74
2023/08/29 06:50:43;;;;;;;8.98;6.38;;;;;;;;;;5123035;27;20077;-74
2023/08/29 06:53:09;;;;;;;10.98;6.43;;;;;;;;;;5113758;27;20469;-74
2023/08/29 06:55:35;;;;;;;10.43;6.32;;;;;;;;;;5126676;27;20031;-74
2023/08/29 06:58:05;;;;;;;9.50;6.35;;;;;;;;;;5118846;27;20469;-72
2023/08/29 07:00:31;;;;;;;14.10;6.03;;;;;;;;;;5103984;27;20024;-76
2023/08/29 07:02:58;;;;;;;14.93;6.10;;;;;;;;;;5114033;28;20042;-73
2023/08/29 07:05:24;;;;;;;11.68;6.30;;;;;;;;;;5124422;27;20027;-73
2023/08/29 07:07:50;;;;;;;11.05;6.90;;;;;;;;;;5121416;27;20161;-72
2023/08/29 07:10:16;;;;;;;11.93;7.57;;;;;;;;;;5114276;27;20423;-74
2023/08/29 07:12:44;;;;;;;8.82;6.18;;;;;;;;;;5113444;28;20031;-72
2023/08/29 07:15:10;;;;;;;9.98;5.95;;;;;;;;;;5121565;27;20020;-73
2023/08/29 07:17:36;;;;;;;9.52;6.00;;;;;;;;;;5123772;27;20023;-74
2023/08/29 07:20:08;;;;;;;9.00;5.53;;;;;;;;;;5123784;27;20019;-75
2023/08/29 07:22:34;;;;;;;9.07;5.88;;;;;;;;;;5117947;27;20024;-74
2023/08/29 07:25:00;;;;;;;14.23;6.00;;;;;;;;;;5121057;27;20024;-74
2023/08/29 07:27:26;;;;;;;9.00;5.47;;;;;;;;;;5116501;27;20028;-73
2023/08/29 07:29:52;;;;;;;9.77;5.82;;;;;;;;;;5110673;27;20055;-73
2023/08/29 07:32:18;;;;;;;6.80;4.97;;;;;;;;;;5102399;27;20534;-73
2023/08/29 07:34:44;;;;;;;12.15;5.22;;;;;;;;;;5093061;28;20040;-75
2023/08/29 07:37:10;;;;;;;9.60;4.57;;;;;;;;;;5094068;28;20134;-75
2023/08/29 07:39:36;;;;;;;8.80;4.82;;;;;;;;;;5093756;28;20473;-78
2023/08/29 07:42:03;;;;;;;8.27;4.90;;;;;;;;;;5094296;28;20032;-76
2023/08/29 07:44:29;;;;;;;6.82;4.90;;;;;;;;;;5093708;28;20110;-77
2023/08/29 07:46:55;;;;;;;10.07;6.75;;;;;;;;;;5093906;28;20020;-75
2023/08/29 07:49:21;;;;;;;13.38;7.65;;;;;;;;;;5093087;28;20032;-75
2023/08/29 07:51:50;;;;;;;9.85;6.00;;;;;;;;;;5093639;28;20055;-77
2023/08/29 07:54:16;;;;;;;7.75;5.97;;;;;;;;;;5093846;28;20059;-77
2023/08/29 07:56:42;;;;;;;10.48;6.10;;;;;;;;;;5093036;28;20024;-76
2023/08/29 07:59:08;;;;;;;10.40;6.75;;;;;;;;;;5093404;28;20502;-78
2023/08/29 08:01:35;;;;;;;8.82;6.20;;;;;;;;;;5093253;28;20406;-77
2023/08/29 08:04:03;;;;;;;8.93;7.00;;;;;;;;;;5092954;28;20527;-74
2023/08/29 08:06:29;;;;;;;7.97;5.43;;;;;;;;;;5092827;28;20073;-72
2023/08/29 08:08:55;;;;;;;11.48;4.90;;;;;;;;;;5093111;28;20394;-75
2023/08/29 08:11:21;;;;;;;8.50;4.85;;;;;;;;;;5094968;28;20024;-74
2023/08/29 08:13:47;;;;;;;8.35;6.10;;;;;;;;;;5093164;28;20035;-73
2023/08/29 08:16:13;;;;;;;6.85;5.35;;;;;;;;;;5092681;28;20042;-76
2023/08/29 08:18:39;;;;;;;15.05;6.13;;;;;;;;;;5092618;28;20541;-74
2023/08/29 08:21:05;;;;;;;9.65;5.68;;;;;;;;;;5094301;28;20028;-75
2023/08/29 08:23:31;;;;;;;24.58;16.67;;;;;;;;;;5093813;28;20012;-74
2023/08/29 08:25:57;;;;;;;14.55;9.77;;;;;;;;;;5092379;28;20446;-76
2023/08/29 08:28:23;;;;;;;9.32;6.47;;;;;;;;;;5092953;28;20024;-74
2023/08/29 08:30:49;;;;;;;11.52;6.05;;;;;;;;;;5092850;28;20416;-74
2023/08/29 08:33:15;;;;;;;6.82;5.90;;;;;;;;;;5092276;28;20026;-75
2023/08/29 08:35:41;;;;;;;8.00;5.40;;;;;;;;;;5092713;28;20111;-74
2023/08/29 08:38:07;;;;;;;10.77;4.97;;;;;;;;;;5092843;28;20085;-76
2023/08/29 08:40:34;;;;;;;9.65;5.38;;;;;;;;;;5095085;28;20021;-77
2023/08/29 08:43:02;;;;;;;9.32;4.75;;;;;;;;;;5096779;28;20099;-76
2023/08/29 08:45:28;;;;;;;6.20;4.22;;;;;;;;;;5093843;28;20436;-75
2023/08/29 08:47:54;;;;;;;6.15;4.32;;;;;;;;;;5099198;28;20031;-75
2023/08/29 08:50:20;;;;;;;10.60;4.53;;;;;;;;;;5095960;28;20051;-74
2023/08/29 08:52:47;;;;;;;6.78;4.43;;;;;;;;;;5099279;28;20040;-77
2023/08/29 08:55:13;;;;;;;8.20;4.25;;;;;;;;;;5099981;28;20032;-75
2023/08/29 08:57:39;;;;;;;6.50;4.10;;;;;;;;;;5087116;28;20117;-75
2023/08/29 09:00:06;;;;;;;8.70;4.50;;;;;;;;;;5108657;28;20075;-74
2023/08/29 09:02:34;;;;;;;10.40;4.72;;;;;;;;;;5096467;28;20028;-74
2023/08/29 09:05:00;;;;;;;6.35;3.97;;;;;;;;;;5095571;28;20138;-73
2023/08/29 09:07:26;;;;;;;9.40;4.47;;;;;;;;;;5096276;28;20028;-75
2023/08/29 09:10:11;;;;;;;5.40;3.70;;;;;;;;;;5096369;28;20020;-74
2023/08/29 09:12:37;;;;;;;;;;;;;;;;;;5095576;28;20025;-74
2023/08/29 09:15:05;;;;;;;12.07;5.10;;;;;;;;;;5093120;28;19934;-73
2023/08/29 09:17:32;;;;;;;24.58;15.90;;;;;;;;;;5097044;28;20012;-74
2023/08/29 09:19:59;;;;;;;9.73;6.80;;;;;;;;;;5075166;28;20027;-73
2023/08/29 09:22:25;;;;;;;7.05;4.57;;;;;;;;;;5091092;28;20020;-73
2023/08/29 09:24:51;;;;;;;6.70;4.15;;;;;;;;;;5092590;28;20035;-75
2023/08/29 09:27:17;;;;;;;6.03;4.13;;;;;;;;;;5093790;28;20035;-77
2023/08/29 09:29:43;;;;;;;8.60;4.80;;;;;;;;;;5091899;28;20111;-77
2023/08/29 09:32:13;;;;;;;14.02;7.45;;;;;;;;;;5091949;28;20113;-76
2023/08/29 09:34:40;;;;;;;10.18;4.85;;;;;;;;;;5091516;28;20094;-75
2023/08/29 09:37:06;;;;;;;8.00;4.65;;;;;;;;;;5095287;28;20024;-76
2023/08/29 09:39:32;;;;;;;7.53;4.30;;;;;;;;;;5098383;28;20020;-73
2023/08/29 09:41:59;;;;;;;9.85;3.75;;;;;;;;;;5097831;28;20035;-74
2023/08/29 09:44:25;;;;;;;6.40;3.90;;;;;;;;;;5081644;28;20026;-74
2023/08/29 09:46:51;;;;;;;5.47;3.15;;;;;;;;;;5095462;28;20024;-73
2023/08/29 09:49:17;;;;;;;4.40;2.35;;;;;;;;;;5095928;28;20040;-75
2023/08/29 09:51:44;;;;;;;14.20;3.58;;;;;;;;;;5096416;28;20036;-73
2023/08/29 09:54:11;;;;;;;4.97;3.10;;;;;;;;;;5096028;28;20476;-74
2023/08/29 09:56:38;;;;;;;6.75;3.35;;;;;;;;;;5095258;28;20017;-73
2023/08/29 09:59:11;;;;;;;5.10;2.70;;;;;;;;;;5095222;28;20375;-77
2023/08/29 10:01:39;;;;;;;6.85;2.78;;;;;;;;;;5095276;28;20474;-76
2023/08/29 10:04:06;;;;;;;8.88;2.88;;;;;;;;;;5095113;28;20051;-76
2023/08/29 10:06:33;;;;;;;3.40;1.45;;;;;;;;;;5095335;28;20028;-77
2023/08/29 10:09:00;;;;;;;2.22;1.52;;;;;;;;;;5095122;28;20066;-76
2023/08/29 10:11:27;;;;;;;46.13;7.35;;;;;;;;;;5095509;28;20028;-76
2023/08/29 10:13:53;;;;;;;19.02;2.70;;;;;;;;;;5094514;28;20377;-74
2023/08/29 10:16:19;;;;;;;5.53;2.00;;;;;;;;;;5094812;28;20367;-75
2023/08/29 10:18:46;;;;;;;13.27;2.00;;;;;;;;;;5095053;28;20025;-74
2023/08/29 10:21:12;;;;;;;4.25;1.40;;;;;;;;;;5094664;28;20048;-77
2023/08/29 10:23:40;;;;;;;27.08;4.40;;;;;;;;;;5095242;28;20023;-74
2023/08/29 10:26:07;;;;;;;22.35;2.95;;;;;;;;;;5095138;28;20032;-75
2023/08/29 10:28:33;;;;;;;22.20;2.40;;;;;;;;;;5094687;28;20059;-76
2023/08/29 10:31:01;;;;;;;45.95;3.75;;;;;;;;;;5095442;28;20020;-75
2023/08/29 10:33:27;;;;;;;4.30;1.40;;;;;;;;;;5094258;28;20016;-74
2023/08/29 10:35:53;;;;;;;3.95;1.38;;;;;;;;;;5094556;28;20024;-75
2023/08/29 10:38:19;;;;;;;4.95;1.45;;;;;;;;;;5094689;28;20069;-74
2023/08/29 10:40:46;;;;;;;4.30;1.48;;;;;;;;;;5094375;28;20020;-75
2023/08/29 10:43:18;;;;;;;6.68;1.38;;;;;;;;;;5097840;28;20482;-76
2023/08/29 10:45:47;;;;;;;5.93;1.50;;;;;;;;;;5098912;28;20470;-76
2023/08/29 10:48:20;;;;;;;7.38;1.70;;;;;;;;;;5093755;28;20424;-76
2023/08/29 10:50:48;;;;;;;2.72;1.20;;;;;;;;;;5094396;28;20028;-75
2023/08/29 10:53:20;;;;;;;3.42;1.23;;;;;;;;;;5093804;28;20024;-77
2023/08/29 10:56:05;;;;;;;4.15;1.52;;;;;;;;;;5094014;28;20111;-75
2023/08/29 10:58:38;;;;;;;5.13;1.65;;;;;;;;;;5094176;28;20020;-75
2023/08/29 11:01:04;;;;;;;6.43;1.70;;;;;;;;;;5095369;28;20040;-76
2023/08/29 11:03:48;;;;;;;5.45;1.23;;;;;;;;;;5075466;28;20028;-75
2023/08/29 11:06:14;;;;;;;3.05;1.45;;;;;;;;;;5094067;28;20027;-73
2023/08/29 11:08:40;;;;;;;4.93;1.67;;;;;;;;;;5095712;28;20020;-77
2023/08/29 11:11:13;;;;;;;5.78;2.10;;;;;;;;;;5094555;28;20028;-77
2023/08/29 11:13:55;;;;;;;3.15;1.30;;;;;;;;;;5093579;28;20020;-73
2023/08/29 11:16:21;;;;;;;3.72;1.30;;;;;;;;;;5094132;28;20020;-77
2023/08/29 11:18:47;;;;;;;3.55;2.05;;;;;;;;;;5094993;28;20027;-77
2023/08/29 11:21:16;;;;;;;2.78;1.30;;;;;;;;;;5095112;28;20020;-76
2023/08/29 11:23:43;;;;;;;4.10;1.77;;;;;;;;;;5093321;28;20020;-77
2023/08/29 11:26:09;;;;;;;4.20;1.58;;;;;;;;;;5093807;28;20098;-76
2023/08/29 11:28:39;;;;;;;8.13;1.45;;;;;;;;;;5093443;28;20020;-75
2023/08/29 11:31:05;;;;;;;2.95;1.42;;;;;;;;;;5093907;28;20020;-73
2023/08/29 11:33:32;;;;;;;3.15;1.10;;;;;;;;;;5093358;28;20092;-73
2023/08/29 11:35:58;;;;;;;3.85;1.55;;;;;;;;;;5093718;28;20107;-74
2023/08/29 11:38:29;;;;;;;2.17;1.25;;;;;;;;;;5093007;28;20039;-75
2023/08/29 11:40:55;;;;;;;5.20;2.10;;;;;;;;;;5093203;28;20031;-76
2023/08/29 11:43:21;;;;;;;4.40;2.03;;;;;;;;;;5092947;28;20016;-74
2023/08/29 11:45:47;;;;;;;5.88;1.38;;;;;;;;;;5092991;28;20119;-75
2023/08/29 11:48:13;;;;;;;3.05;1.00;;;;;;;;;;5093430;28;20024;-75
2023/08/29 11:50:39;;;;;;;3.10;1.20;;;;;;;;;;5092923;28;20489;-74
2023/08/29 11:53:05;;;;;;;1.92;0.95;;;;;;;;;;5092694;28;20020;-76
2023/08/29 11:55:31;;;;;;;1.83;0.90;;;;;;;;;;5093168;28;20027;-75
2023/08/29 11:57:58;;;;;;;3.20;0.95;;;;;;;;;;5092294;28;20031;-75
2023/08/29 12:00:27;;;;;;;3.85;2.67;;;;;;;;;;5092866;28;20113;-75
2023/08/29 12:02:53;;;;;;;2.03;1.10;;;;;;;;;;5093089;28;20182;-76
2023/08/29 12:05:22;;;;;;;2.03;1.00;;;;;;;;;;5092616;28;20111;-74
2023/08/29 12:07:53;;;;;;;1.70;0.90;;;;;;;;;;5093331;28;20073;-75
2023/08/29 12:10:19;;;;;;;2.13;1.08;;;;;;;;;;5093760;28;20542;-75
2023/08/29 12:12:45;;;;;;;4.57;2.30;;;;;;;;;;5093179;28;20028;-75
2023/08/29 12:15:14;;;;;;;1.92;1.15;;;;;;;;;;5093356;28;20073;-75
2023/08/29 12:17:44;;;;;;;1.98;0.93;;;;;;;;;;5092312;28;20045;-74
2023/08/29 12:20:15;;;;;;;4.45;0.90;;;;;;;;;;5092536;28;20024;-75
2023/08/29 12:22:42;;;;;;;2.42;0.95;;;;;;;;;;5092325;28;20024;-75
2023/08/29 12:25:11;;;;;;;4.30;1.60;;;;;;;;;;5092502;28;20034;-75
2023/08/29 12:27:37;;;;;;;2.17;0.88;;;;;;;;;;5092403;28;20085;-75
2023/08/29 12:30:04;;;;;;;2.30;1.00;;;;;;;;;;5092289;28;20020;-75
2023/08/29 12:32:30;;;;;;;2.72;1.48;;;;;;;;;;5091983;28;20440;-74
2023/08/29 12:34:56;;;;;;;1.38;0.90;;;;;;;;;;5092258;28;20028;-74
2023/08/29 12:37:23;;;;;;;0.70;0.70;;;;;;;;;;5092105;28;20103;-74
2023/08/29 12:39:49;;;;;;;1.30;0.90;;;;;;;;;;5091986;28;20557;-77
2023/08/29 12:42:15;;;;;;;2.65;1.10;;;;;;;;;;5092090;28;20031;-77
2023/08/29 12:44:42;;;;;;;1.58;0.73;;;;;;;;;;5092454;28;20028;-77
2023/08/29 12:47:08;;;;;;;3.88;1.90;;;;;;;;;;5092459;28;20020;-75
2023/08/29 12:49:35;;;;;;;6.35;2.67;;;;;;;;;;5092462;28;20028;-76
2023/08/29 12:52:01;;;;;;;5.60;2.40;;;;;;;;;;5091790;28;20028;-77
2023/08/29 12:54:28;;;;;;;6.80;2.00;;;;;;;;;;5092033;28;20028;-77
2023/08/29 12:56:54;;;;;;;2.42;1.52;;;;;;;;;;5092153;28;20050;-77
2023/08/29 12:59:20;;;;;;;3.22;1.65;;;;;;;;;;5092407;28;20027;-77
2023/08/29 13:01:46;;;;;;;2.70;1.63;;;;;;;;;;5092389;28;20402;-75
2023/08/29 13:04:13;;;;;;;1.85;1.15;;;;;;;;;;5092857;28;20028;-77
2023/08/29 13:06:40;;;;;;;2.80;1.02;;;;;;;;;;5093234;28;20031;-76
2023/08/29 13:09:06;;;;;;;1.83;1.17;;;;;;;;;;5093149;28;20044;-77
2023/08/29 13:11:32;;;;;;;4.47;1.05;;;;;;;;;;5092395;28;20039;-75
2023/08/29 13:13:58;;;;;;;6.35;1.50;;;;;;;;;;5092202;28;20028;-75
2023/08/29 13:16:33;;;;;;;4.95;2.20;;;;;;;;;;5093842;28;20417;-76
2023/08/29 13:18:59;;;;;;;4.50;2.35;;;;;;;;;;5092778;28;20097;-77
2023/08/29 13:21:25;;;;;;;5.15;1.80;;;;;;;;;;5093092;28;20432;-79
2023/08/29 13:23:52;;;;;;;3.28;1.65;;;;;;;;;;5092472;28;20020;-76
2023/08/29 13:26:20;;;;;;;2.22;1.05;;;;;;;;;;5091879;28;20048;-76
2023/08/29 13:28:46;;;;;;;2.08;1.20;;;;;;;;;;5092702;28;20046;-76
2023/08/29 13:31:15;;;;;;;2.88;0.90;;;;;;;;;;5093410;28;20482;-78
2023/08/29 13:33:41;;;;;;;2.22;1.40;;;;;;;;;;5093152;28;20020;-77
2023/08/29 13:36:07;;;;;;;1.70;0.90;;;;;;;;;;5091303;28;20050;-75
2023/08/29 13:38:33;;;;;;;4.55;1.55;;;;;;;;;;5091131;28;20049;-77
2023/08/29 13:40:59;;;;;;;7.20;1.73;;;;;;;;;;5091847;28;20560;-77
2023/08/29 13:43:25;;;;;;;14.50;9.38;;;;;;;;;;5091543;28;20024;-78
2023/08/29 13:45:51;;;;;;;4.35;1.77;;;;;;;;;;5092789;28;20101;-77
2023/08/29 13:48:17;;;;;;;4.55;1.42;;;;;;;;;;5101920;28;20474;-80
2023/08/29 13:50:45;;;;;;;5.05;2.05;;;;;;;;;;5080224;28;20035;-78
2023/08/29 13:53:11;;;;;;;4.93;1.50;;;;;;;;;;5093112;28;20016;-76
2023/08/29 13:55:38;;;;;;;5.00;1.38;;;;;;;;;;5093203;28;20027;-77
2023/08/29 13:58:04;;;;;;;3.13;1.45;;;;;;;;;;5093312;28;20039;-81
2023/08/29 14:00:30;;;;;;;2.67;1.60;;;;;;;;;;5093575;28;20024;-78
2023/08/29 14:02:56;;;;;;;2.60;1.45;;;;;;;;;;5094092;28;20024;-78
2023/08/29 14:05:22;;;;;;;2.90;1.23;;;;;;;;;;5092948;28;20027;-73
2023/08/29 14:07:48;;;;;;;5.75;3.92;;;;;;;;;;5092844;28;20533;-82
2023/08/29 14:10:14;;;;;;;9.32;5.88;;;;;;;;;;5091528;28;20104;-75
2023/08/29 14:12:40;;;;;;;8.88;2.55;;;;;;;;;;5091386;28;20080;-76
2023/08/29 14:15:06;;;;;;;3.05;1.52;;;;;;;;;;5072963;28;20028;-76
2023/08/29 14:17:32;;;;;;;4.05;1.30;;;;;;;;;;5091588;28;20020;-76
2023/08/29 14:20:04;;;;;;;2.40;1.25;;;;;;;;;;5091457;28;20111;-76
2023/08/29 14:22:30;;;;;;;1.98;1.30;;;;;;;;;;5097004;28;20035;-76
2023/08/29 14:24:56;;;;;;;2.08;1.15;;;;;;;;;;5097768;28;20047;-74
2023/08/29 14:27:22;;;;;;;3.28;1.20;;;;;;;;;;5098550;28;20020;-80
2023/08/29 14:29:48;;;;;;;1.80;1.05;;;;;;;;;;5097572;28;20039;-77
2023/08/29 14:32:14;;;;;;;2.72;1.13;;;;;;;;;;5096772;28;20111;-75
2023/08/29 14:34:40;;;;;;;2.38;1.20;;;;;;;;;;5096726;28;20024;-76
2023/08/29 14:37:06;;;;;;;2.15;1.08;;;;;;;;;;5096111;28;20042;-82
2023/08/29 14:39:33;;;;;;;2.42;1.30;;;;;;;;;;5099074;28;20466;-81
2023/08/29 14:41:59;;;;;;;2.60;1.60;;;;;;;;;;5097728;28;20020;-79